Time;durP1;ratioP1;P1;durP2;ratioP2;P2;SDS_P1;SDS_P2;PMS_P1;PMS_P2;Temp;Humidity;BMP_temperature;BMP_pressure;BME280_temperature;BME280_humidity;BME280_pressure;Samples;Min_cycle;Max_cycle;Signal;HPM_P1;HPM_P2
2021/04/11 00:00:28;;;;;;;8.45;3.05;;;14.40;59.80;;;;;;5053931;28;20033;-68
2021/04/11 00:02:54;;;;;;;9.93;3.45;;;14.40;59.80;;;;;;5054078;28;20111;-70
2021/04/11 00:05:23;;;;;;;7.38;3.55;;;14.40;59.80;;;;;;5053957;28;20374;-70
2021/04/11 00:07:49;;;;;;;8.50;3.22;;;14.40;59.90;;;;;;5053779;28;20116;-68
2021/04/11 00:10:22;;;;;;;8.10;3.15;;;14.40;59.80;;;;;;5053703;28;20029;-70
2021/04/11 00:12:48;;;;;;;9.07;3.40;;;14.40;60.00;;;;;;5053810;28;20025;-68
2021/04/11 00:15:15;;;;;;;8.85;3.20;;;14.40;59.90;;;;;;5053796;28;20074;-69
2021/04/11 00:17:40;;;;;;;8.60;3.40;;;14.40;60.00;;;;;;5052384;28;20537;-69
2021/04/11 00:20:07;;;;;;;7.03;2.92;;;14.40;59.90;;;;;;5053569;28;20021;-68
2021/04/11 00:22:33;;;;;;;6.20;2.78;;;14.40;60.00;;;;;;5053293;28;20053;-68
2021/04/11 00:24:59;;;;;;;7.40;3.10;;;14.40;59.90;;;;;;5053299;28;20060;-68
2021/04/11 00:27:25;;;;;;;9.23;3.50;;;14.40;60.00;;;;;;5053180;28;20029;-68
2021/04/11 00:29:50;;;;;;;8.02;3.10;;;14.30;59.80;;;;;;5053009;28;20087;-67
2021/04/11 00:32:16;;;;;;;10.63;3.17;;;14.30;60.00;;;;;;5053055;28;20021;-67
2021/04/11 00:34:42;;;;;;;7.65;2.92;;;14.30;59.90;;;;;;5053589;28;20024;-70
2021/04/11 00:37:09;;;;;;;7.93;3.03;;;14.30;60.00;;;;;;5052187;28;20033;-69
2021/04/11 00:39:34;;;;;;;7.00;3.15;;;14.30;59.80;;;;;;5052594;28;20393;-68
2021/04/11 00:42:08;;;;;;;5.38;2.72;;;14.20;59.80;;;;;;5053088;28;20099;-71
2021/04/11 00:44:34;;;;;;;8.30;2.67;;;14.20;59.80;;;;;;5053237;28;20021;-70
2021/04/11 00:47:02;;;;;;;6.53;2.70;;;14.20;59.60;;;;;;5053228;28;20060;-69
2021/04/11 00:49:41;;;;;;;8.77;3.00;;;14.20;59.50;;;;;;5053117;28;20117;-69
2021/04/11 00:52:10;;;;;;;6.85;2.47;;;14.20;60.20;;;;;;5053027;28;20020;-69
2021/04/11 00:54:37;;;;;;;8.18;2.75;;;14.20;59.70;;;;;;5053171;28;20025;-68
2021/04/11 00:57:04;;;;;;;5.75;2.55;;;14.20;59.70;;;;;;5053155;28;20083;-68
2021/04/11 00:59:30;;;;;;;4.95;2.70;;;14.20;59.70;;;;;;5053216;28;20037;-71
2021/04/11 01:01:56;;;;;;;5.78;3.10;;;14.20;59.70;;;;;;5053045;28;20112;-67
2021/04/11 01:04:22;;;;;;;6.57;3.05;;;14.20;59.80;;;;;;5053221;28;20099;-70
2021/04/11 01:07:15;;;;;;;7.28;2.90;;;14.10;59.70;;;;;;5052981;28;20013;-71
2021/04/11 01:09:45;;;;;;;11.00;3.15;;;14.10;60.20;;;;;;5050551;28;20094;-70
2021/04/11 01:12:15;;;;;;;6.45;2.60;;;14.10;60.00;;;;;;5053297;28;20425;-70
2021/04/11 01:14:42;;;;;;;14.52;7.03;;;14.10;60.10;;;;;;5053054;28;20052;-69
2021/04/11 01:17:18;;;;;;;5.38;3.10;;;14.10;60.20;;;;;;5053247;28;20382;-68
2021/04/11 01:19:44;;;;;;;6.35;2.63;;;14.10;60.30;;;;;;5052779;28;20470;-70
2021/04/11 01:22:25;;;;;;;9.20;2.95;;;14.10;60.50;;;;;;5052660;28;20049;-68
2021/04/11 01:24:57;;;;;;;7.72;2.83;;;14.00;60.30;;;;;;5053356;28;20028;-70
2021/04/11 01:27:31;;;;;;;5.88;2.72;;;14.00;60.60;;;;;;5052827;28;20025;-67
2021/04/11 01:29:58;;;;;;;6.38;2.55;;;14.00;61.50;;;;;;5052798;28;20098;-71
2021/04/11 01:32:24;;;;;;;4.32;2.58;;;14.00;60.20;;;;;;5052465;28;20060;-70
2021/04/11 01:34:57;;;;;;;8.27;2.45;;;14.00;60.30;;;;;;5052705;28;20063;-69
2021/04/11 01:37:26;;;;;;;6.75;2.50;;;14.00;61.00;;;;;;5052846;28;20074;-68
2021/04/11 01:39:52;;;;;;;6.25;2.75;;;14.00;60.40;;;;;;5052822;28;20059;-70
2021/04/11 01:42:19;;;;;;;5.88;2.58;;;14.10;60.60;;;;;;5052851;28;20056;-70
2021/04/11 01:44:48;;;;;;;8.18;2.60;;;14.00;60.40;;;;;;5052783;28;20032;-67
2021/04/11 01:47:14;;;;;;;6.53;2.70;;;14.00;60.30;;;;;;5052814;28;20175;-70
2021/04/11 01:49:42;;;;;;;8.43;2.92;;;14.00;60.50;;;;;;5052553;28;20052;-70
2021/04/11 01:52:16;;;;;;;9.70;2.97;;;14.10;60.80;;;;;;5055298;28;20013;-68
2021/04/11 01:54:43;;;;;;;7.57;2.83;;;14.10;61.00;;;;;;5056351;28;20028;-68
2021/04/11 01:57:22;;;;;;;9.13;3.58;;;14.10;60.80;;;;;;5056220;28;20021;-70
2021/04/11 01:59:49;;;;;;;5.18;2.67;;;14.10;60.80;;;;;;5056229;28;20123;-70
2021/04/11 02:02:17;;;;;;;5.68;2.55;;;14.10;60.90;;;;;;5056138;28;20021;-69
2021/04/11 02:04:45;;;;;;;10.57;3.17;;;14.10;61.10;;;;;;5056115;28;20108;-71
2021/04/11 02:07:13;;;;;;;8.55;2.70;;;14.10;61.20;;;;;;5055923;28;20035;-71
2021/04/11 02:09:44;;;;;;;7.30;2.53;;;14.20;61.10;;;;;;5055861;28;20029;-70
2021/04/11 02:12:12;;;;;;;4.50;2.22;;;14.20;61.20;;;;;;5055885;28;20021;-70
2021/04/11 02:14:40;;;;;;;5.18;2.58;;;14.20;61.10;;;;;;5055993;28;20028;-69
2021/04/11 02:17:06;;;;;;;7.30;2.53;;;14.20;61.20;;;;;;5054644;28;20025;-69
2021/04/11 02:19:32;;;;;;;7.70;2.92;;;14.10;61.50;;;;;;5055615;28;20024;-69
2021/04/11 02:22:06;;;;;;;6.53;3.00;;;14.10;61.50;;;;;;5055457;28;20102;-68
2021/04/11 02:24:41;;;;;;;7.43;2.60;;;14.20;61.70;;;;;;5055855;28;20037;-68
2021/04/11 02:27:09;;;;;;;7.07;2.88;;;14.20;61.30;;;;;;5055685;28;20032;-70
2021/04/11 02:29:35;;;;;;;11.82;3.15;;;14.20;61.10;;;;;;5055646;28;20040;-69
2021/04/11 02:32:02;;;;;;;10.38;2.90;;;14.20;61.30;;;;;;5055294;28;20028;-70
2021/04/11 02:34:33;;;;;;;5.28;2.40;;;14.20;61.30;;;;;;5055423;28;20516;-68
2021/04/11 02:37:09;;;;;;;11.15;3.00;;;14.10;61.50;;;;;;5055638;28;20029;-70
2021/04/11 02:39:42;;;;;;;7.22;3.13;;;14.10;61.70;;;;;;5055585;28;20025;-68
2021/04/11 02:42:21;;;;;;;8.57;2.40;;;14.10;61.60;;;;;;5055188;28;20374;-68
2021/04/11 02:44:50;;;;;;;11.18;2.85;;;14.10;61.50;;;;;;5055217;28;20424;-68
2021/04/11 02:47:16;;;;;;;5.70;2.35;;;14.10;61.70;;;;;;5055244;28;20413;-69
2021/04/11 02:49:43;;;;;;;7.28;2.85;;;14.10;61.60;;;;;;5055120;28;20029;-67
2021/04/11 02:52:24;;;;;;;7.90;2.97;;;14.10;61.60;;;;;;5055057;28;20508;-70
2021/04/11 02:54:50;;;;;;;8.13;3.05;;;14.10;61.90;;;;;;5055193;28;20470;-69
2021/04/11 02:57:18;;;;;;;4.97;2.60;;;14.10;61.50;;;;;;5054947;28;20028;-69
2021/04/11 02:59:45;;;;;;;7.63;2.55;;;14.10;61.20;;;;;;5055002;28;20029;-70
2021/04/11 03:02:13;;;;;;;6.35;2.78;;;14.10;61.60;;;;;;5054466;28;20032;-71
2021/04/11 03:04:39;;;;;;;6.00;2.40;;;14.20;61.60;;;;;;5054966;28;20044;-68
2021/04/11 03:07:10;;;;;;;7.20;2.80;;;14.20;61.50;;;;;;5054988;28;20029;-69
2021/04/11 03:09:40;;;;;;;7.40;2.45;;;14.20;61.40;;;;;;5054606;28;20488;-69
2021/04/11 03:12:06;;;;;;;6.22;2.67;;;14.20;61.30;;;;;;5054572;28;20040;-70
2021/04/11 03:14:36;;;;;;;7.75;2.90;;;14.20;61.50;;;;;;5054706;28;20474;-67
2021/04/11 03:17:09;;;;;;;6.45;2.40;;;14.20;61.50;;;;;;5054772;28;20021;-69
2021/04/11 03:19:42;;;;;;;6.72;2.45;;;14.20;61.60;;;;;;5054739;28;20033;-70
2021/04/11 03:22:08;;;;;;;7.15;2.78;;;14.20;61.40;;;;;;5054257;28;20501;-69
2021/04/11 03:24:34;;;;;;;5.78;2.53;;;14.10;61.40;;;;;;5054631;28;20021;-68
2021/04/11 03:27:34;;;;;;;6.57;2.38;;;14.20;61.40;;;;;;5053268;28;20496;-69
2021/04/11 03:30:33;;;;;;;6.20;2.60;;;14.20;61.60;;;;;;5049711;28;20543;-69
2021/04/11 03:33:03;;;;;;;8.15;2.75;;;14.10;61.50;;;;;;5054439;28;20576;-68
2021/04/11 03:35:33;;;;;;;10.40;2.50;;;14.10;61.40;;;;;;5054623;28;20422;-68
2021/04/11 03:38:02;;;;;;;6.95;2.20;;;14.20;61.20;;;;;;5054374;28;20508;-68
2021/04/11 03:40:31;;;;;;;7.25;2.65;;;14.10;61.20;;;;;;5053002;28;20100;-68
2021/04/11 03:43:02;;;;;;;6.53;2.35;;;14.10;61.00;;;;;;5052987;28;20399;-67
2021/04/11 03:45:32;;;;;;;9.50;2.53;;;14.10;61.10;;;;;;5054149;28;20374;-69
2021/04/11 03:48:14;;;;;;;6.75;2.50;;;14.10;61.00;;;;;;5054188;28;20021;-69
2021/04/11 03:50:50;;;;;;;6.43;2.45;;;14.10;61.10;;;;;;5054053;28;20025;-69
2021/04/11 03:53:43;;;;;;;4.82;2.00;;;14.20;60.70;;;;;;5054042;28;20100;-69
2021/04/11 03:56:12;;;;;;;9.90;2.60;;;14.20;60.90;;;;;;5054197;28;20492;-69
2021/04/11 03:58:43;;;;;;;6.55;2.10;;;14.20;60.10;;;;;;5054045;28;20035;-70
2021/04/11 04:01:17;;;;;;;5.90;2.00;;;14.20;59.40;;;;;;5053832;28;20028;-68
2021/04/11 04:03:43;;;;;;;;;;;14.20;58.30;;;;;;5054307;28;20501;-69
2021/04/11 04:06:30;;;;;;;6.60;2.30;;;14.20;56.70;;;;;;5053761;28;19905;-70
2021/04/11 04:08:56;;;;;;;5.82;1.80;;;14.20;57.10;;;;;;5052288;28;20037;-68
2021/04/11 04:11:40;;;;;;;7.05;2.40;;;14.10;56.10;;;;;;5053765;28;20029;-71
2021/04/11 04:14:24;;;;;;;;;;;14.10;56.50;;;;;;5053493;28;20370;-67
2021/04/11 04:16:58;;;;;;;5.05;1.98;;;14.10;55.70;;;;;;5053905;28;20258;-68
2021/04/11 04:19:31;;;;;;;7.60;2.33;;;14.10;55.90;;;;;;5053850;28;20021;-67
2021/04/11 04:22:15;;;;;;;7.97;2.72;;;14.10;55.40;;;;;;5053332;28;20127;-69
2021/04/11 04:24:50;;;;;;;7.40;2.35;;;14.10;55.20;;;;;;5053632;28;20036;-68
2021/04/11 04:27:33;;;;;;;6.50;2.22;;;14.10;55.10;;;;;;5053702;28;20033;-71
2021/04/11 04:30:02;;;;;;;8.43;2.00;;;14.10;55.50;;;;;;5053644;28;20037;-67
2021/04/11 04:32:40;;;;;;;6.22;2.00;;;14.10;55.20;;;;;;5053494;28;20385;-70
2021/04/11 04:35:17;;;;;;;9.90;2.03;;;14.10;54.90;;;;;;5053529;28;20374;-69
2021/04/11 04:38:07;;;;;;;5.65;1.73;;;14.20;54.40;;;;;;5053451;28;20442;-69
2021/04/11 04:40:42;;;;;;;6.70;2.38;;;14.20;54.20;;;;;;5053286;28;20025;-70
2021/04/11 04:43:49;;;;;;;8.98;2.60;;;14.20;54.00;;;;;;5053409;28;20433;-67
2021/04/11 04:46:38;;;;;;;7.68;2.10;;;14.20;53.70;;;;;;5029677;28;20040;-69
2021/04/11 04:49:25;;;;;;;6.00;2.40;;;14.20;52.80;;;;;;5053008;28;20053;-68
2021/04/11 04:52:04;;;;;;;4.63;2.00;;;14.20;53.00;;;;;;5053087;28;20025;-69
2021/04/11 04:54:41;;;;;;;5.20;2.13;;;14.20;52.40;;;;;;5053321;28;20037;-67
2021/04/11 04:57:18;;;;;;;6.57;2.00;;;14.20;51.80;;;;;;5053035;28;20027;-69
2021/04/11 05:00:06;;;;;;;4.28;1.75;;;14.30;51.10;;;;;;5053262;28;20025;-69
2021/04/11 05:02:42;;;;;;;5.30;2.00;;;14.30;50.80;;;;;;5052978;28;20163;-68
2021/04/11 05:05:09;;;;;;;6.63;1.73;;;14.30;49.90;;;;;;5053301;28;20028;-70
2021/04/11 05:07:41;;;;;;;6.60;2.20;;;14.30;49.70;;;;;;5053063;28;20062;-71
2021/04/11 05:10:11;;;;;;;6.07;1.98;;;14.30;49.10;;;;;;5052994;28;20033;-68
2021/04/11 05:12:46;;;;;;;5.55;1.65;;;14.30;49.30;;;;;;5053087;28;20018;-70
2021/04/11 05:15:20;;;;;;;4.72;1.70;;;14.40;48.90;;;;;;5053054;28;20032;-70
2021/04/11 05:18:01;;;;;;;5.15;1.73;;;14.40;48.60;;;;;;5052835;28;20485;-69
2021/04/11 05:20:32;;;;;;;5.90;1.67;;;14.40;48.60;;;;;;5053132;28;20033;-69
2021/04/11 05:23:27;;;;;;;6.55;1.90;;;14.40;48.30;;;;;;5052663;28;20060;-69
2021/04/11 05:26:14;;;;;;;6.15;1.90;;;14.40;48.60;;;;;;5045473;28;20497;-69
2021/04/11 05:28:48;;;;;;;3.78;1.50;;;14.50;48.40;;;;;;5056742;28;20033;-66
2021/04/11 05:31:18;;;;;;;5.97;1.92;;;14.50;48.40;;;;;;5056457;28;20029;-70
2021/04/11 05:33:45;;;;;;;5.53;1.70;;;14.50;48.40;;;;;;5056667;28;20028;-69
2021/04/11 05:36:17;;;;;;;4.63;1.60;;;14.50;48.40;;;;;;5056937;28;20029;-69
2021/04/11 05:38:55;;;;;;;4.57;1.95;;;14.50;48.50;;;;;;5056545;28;20120;-68
2021/04/11 05:41:56;;;;;;;4.35;1.58;;;14.50;48.50;;;;;;5056522;28;20032;-71
2021/04/11 05:44:47;;;;;;;6.80;1.77;;;14.50;48.10;;;;;;5004894;28;20044;-67
2021/04/11 05:47:24;;;;;;;6.63;1.63;;;14.50;48.10;;;;;;5056030;28;20033;-68
2021/04/11 05:50:24;;;;;;;4.43;1.98;;;14.50;48.60;;;;;;5056474;28;20067;-69
2021/04/11 05:53:02;;;;;;;9.27;2.10;;;14.50;48.50;;;;;;5055882;28;20033;-70
2021/04/11 05:55:33;;;;;;;5.95;1.85;;;14.50;49.10;;;;;;5056452;28;20053;-71
2021/04/11 05:58:04;;;;;;;5.32;1.90;;;14.60;49.10;;;;;;5056239;28;20029;-71
2021/04/11 06:00:53;;;;;;;4.28;1.80;;;14.60;49.30;;;;;;5056164;28;20099;-70
2021/04/11 06:03:22;;;;;;;9.65;1.65;;;14.60;49.20;;;;;;5056147;28;20430;-71
2021/04/11 06:06:00;;;;;;;6.30;1.88;;;14.50;49.20;;;;;;5056040;28;20032;-68
2021/04/11 06:08:33;;;;;;;4.25;1.88;;;14.50;49.50;;;;;;5056210;28;20377;-72
2021/04/11 06:11:20;;;;;;;6.25;2.05;;;14.50;49.70;;;;;;5056078;28;20120;-73
2021/04/11 06:14:01;;;;;;;5.07;1.85;;;14.60;50.00;;;;;;5056241;28;20025;-71
2021/04/11 06:16:30;;;;;;;5.95;2.00;;;14.60;50.60;;;;;;5055905;28;20067;-70
2021/04/11 06:18:57;;;;;;;5.28;1.80;;;14.60;50.30;;;;;;5055903;28;20032;-69
2021/04/11 06:21:22;;;;;;;7.78;2.25;;;14.60;50.60;;;;;;5055554;28;20082;-68
2021/04/11 06:23:57;;;;;;;5.60;2.22;;;14.60;50.80;;;;;;5055770;28;20025;-70
2021/04/11 06:26:43;;;;;;;4.80;2.20;;;14.70;50.90;;;;;;5055705;28;20129;-70
2021/04/11 06:29:22;;;;;;;6.93;1.90;;;14.70;51.30;;;;;;5055725;28;20562;-71
2021/04/11 06:31:58;;;;;;;3.88;1.80;;;14.70;51.40;;;;;;5054261;28;20021;-67
2021/04/11 06:34:30;;;;;;;4.10;1.77;;;14.70;52.30;;;;;;5055465;28;20070;-68
2021/04/11 06:37:02;;;;;;;9.40;2.10;;;14.80;52.10;;;;;;5055186;28;20027;-71
2021/04/11 06:39:41;;;;;;;6.88;2.30;;;14.80;52.20;;;;;;5054851;28;20029;-70
2021/04/11 06:42:09;;;;;;;6.60;2.53;;;14.80;52.90;;;;;;5055460;28;20029;-70
2021/04/11 06:44:47;;;;;;;7.97;2.20;;;14.80;53.30;;;;;;5055752;28;20033;-70
2021/04/11 06:47:40;;;;;;;8.20;2.25;;;14.90;53.80;;;;;;5055349;28;20470;-75
2021/04/11 06:50:15;;;;;;;6.05;2.30;;;14.90;54.60;;;;;;5055264;28;20056;-69
2021/04/11 06:53:12;;;;;;;6.68;2.50;;;14.90;55.20;;;;;;5055291;28;20052;-69
2021/04/11 06:55:55;;;;;;;5.82;2.50;;;14.90;55.50;;;;;;5055213;28;20021;-70
2021/04/11 06:58:29;;;;;;;12.38;3.10;;;14.90;55.70;;;;;;5055258;28;20025;-72
2021/04/11 07:01:22;;;;;;;10.35;2.60;;;15.00;56.10;;;;;;5055114;28;20465;-67
2021/04/11 07:04:25;;;;;;;10.82;2.83;;;15.00;56.30;;;;;;5054930;28;20025;-69
2021/04/11 07:07:28;;;;;;;9.85;2.90;;;15.00;56.30;;;;;;5054844;28;20173;-69
2021/04/11 07:10:09;;;;;;;6.68;2.35;;;15.00;56.60;;;;;;5054886;28;20041;-69
2021/04/11 07:13:15;;;;;;;8.10;2.72;;;15.00;56.70;;;;;;5054908;28;20096;-69
2021/04/11 07:16:02;;;;;;;8.80;3.20;;;15.00;57.20;;;;;;5054773;28;20024;-70
2021/04/11 07:18:51;;;;;;;7.63;2.83;;;15.00;57.20;;;;;;5054531;28;20033;-68
2021/04/11 07:21:32;;;;;;;5.80;2.80;;;15.10;57.50;;;;;;5054213;28;20032;-70
2021/04/11 07:24:24;;;;;;;8.00;3.08;;;15.10;57.00;;;;;;5054605;28;20039;-71
2021/04/11 07:27:08;;;;;;;10.07;2.80;;;15.10;57.50;;;;;;5046241;28;20033;-69
2021/04/11 07:29:49;;;;;;;6.97;2.55;;;15.20;57.60;;;;;;5054231;28;20037;-70
2021/04/11 07:32:33;;;;;;;9.73;3.53;;;15.20;57.60;;;;;;5053088;28;20078;-70
2021/04/11 07:35:13;;;;;;;16.48;3.15;;;15.20;57.10;;;;;;5054567;28;20018;-69
2021/04/11 07:38:00;;;;;;;8.48;2.95;;;15.30;57.60;;;;;;5054343;28;20386;-70
2021/04/11 07:40:44;;;;;;;10.57;3.15;;;15.30;57.50;;;;;;5054568;28;20028;-70
2021/04/11 07:43:36;;;;;;;6.85;3.22;;;15.40;57.50;;;;;;5054258;28;20082;-69
2021/04/11 07:46:23;;;;;;;10.02;3.75;;;15.40;57.50;;;;;;5054130;28;20064;-69
2021/04/11 07:49:18;;;;;;;7.65;3.85;;;15.40;57.80;;;;;;5053570;28;20064;-70
2021/04/11 07:51:55;;;;;;;10.13;3.53;;;15.50;58.00;;;;;;4999682;28;20527;-69
2021/04/11 07:54:45;;;;;;;7.85;2.45;;;15.40;58.10;;;;;;5053798;28;20033;-70
2021/04/11 07:57:11;;;;;;;7.68;2.65;;;15.40;58.00;;;;;;5052514;28;20036;-71
2021/04/11 08:00:07;;;;;;;10.80;3.25;;;15.40;58.30;;;;;;5053812;28;20465;-69
2021/04/11 08:03:06;;;;;;;12.05;3.20;;;15.40;57.90;;;;;;5054036;28;20031;-73
2021/04/11 08:06:02;;;;;;;9.52;3.05;;;15.40;57.90;;;;;;5054123;28;20028;-70
2021/04/11 08:08:31;;;;;;;8.00;3.53;;;15.40;57.90;;;;;;5053764;28;20094;-70
2021/04/11 08:11:08;;;;;;;10.52;3.55;;;15.40;57.90;;;;;;5053360;28;20469;-69
2021/04/11 08:14:01;;;;;;;10.10;3.25;;;15.40;57.80;;;;;;5053778;28;20024;-70
2021/04/11 08:16:55;;;;;;;13.80;3.70;;;15.50;57.80;;;;;;5053600;28;20035;-72
2021/04/11 08:19:57;;;;;;;14.50;3.72;;;15.60;57.50;;;;;;5053575;28;20562;-69
2021/04/11 08:23:02;;;;;;;12.30;4.15;;;15.80;57.10;;;;;;5053088;28;20512;-70
2021/04/11 08:25:39;;;;;;;12.23;3.47;;;15.90;57.10;;;;;;5052178;28;20474;-70
2021/04/11 08:28:38;;;;;;;12.20;4.70;;;16.10;56.20;;;;;;5053292;28;20021;-72
2021/04/11 08:31:24;;;;;;;10.13;3.55;;;16.20;56.50;;;;;;5053542;28;20017;-71
2021/04/11 08:34:08;;;;;;;12.45;3.92;;;16.30;56.10;;;;;;5053308;28;20100;-69
2021/04/11 08:36:51;;;;;;;10.15;3.15;;;16.40;56.70;;;;;;5053264;28;20210;-69
2021/04/11 08:40:06;;;;;;;10.80;3.28;;;16.40;56.50;;;;;;5053338;28;20036;-68
2021/04/11 08:43:03;;;;;;;9.55;4.35;;;16.40;56.30;;;;;;5019829;28;20474;-69
2021/04/11 08:45:49;;;;;;;9.63;3.72;;;16.50;56.80;;;;;;5053209;28;20108;-71
2021/04/11 08:48:32;;;;;;;12.00;3.30;;;16.50;57.00;;;;;;5053064;28;20035;-69
2021/04/11 08:51:24;;;;;;;10.88;3.80;;;16.40;57.10;;;;;;5053059;28;20470;-69
2021/04/11 08:54:18;;;;;;;10.25;3.30;;;16.40;57.80;;;;;;5024510;28;20029;-69
2021/04/11 08:57:18;;;;;;;10.38;2.90;;;16.40;57.40;;;;;;5053127;28;20055;-69
2021/04/11 08:59:59;;;;;;;11.05;3.55;;;16.40;58.10;;;;;;5001805;28;20033;-69
2021/04/11 09:02:47;;;;;;;9.15;3.03;;;16.40;58.20;;;;;;5056557;28;20112;-71
2021/04/11 09:05:36;;;;;;;15.48;3.53;;;16.40;58.20;;;;;;5057222;28;20355;-73
2021/04/11 09:08:50;;;;;;;8.88;3.90;;;16.50;57.70;;;;;;5057143;28;20023;-72
2021/04/11 09:11:40;;;;;;;13.80;4.40;;;16.40;58.20;;;;;;5043681;28;20055;-72
2021/04/11 09:14:38;;;;;;;15.15;4.63;;;16.40;58.30;;;;;;5057088;28;20043;-71
2021/04/11 09:17:25;;;;;;;19.33;4.03;;;16.40;58.20;;;;;;5057116;28;20017;-73
2021/04/11 09:20:34;;;;;;;9.68;3.97;;;16.40;58.10;;;;;;5057071;28;20055;-69
2021/04/11 09:23:32;;;;;;;12.38;4.20;;;16.40;58.10;;;;;;5023090;28;20163;-70
2021/04/11 09:26:19;;;;;;;10.63;3.60;;;16.30;57.30;;;;;;5055417;28;20059;-71
2021/04/11 09:28:51;;;;;;;9.95;3.67;;;16.40;57.90;;;;;;5056395;28;20056;-68
2021/04/11 09:31:27;;;;;;;13.40;3.90;;;16.40;57.70;;;;;;5056427;28;20017;-71
2021/04/11 09:34:25;;;;;;;10.27;3.65;;;16.40;57.20;;;;;;5056557;28;20052;-70
2021/04/11 09:37:13;;;;;;;11.07;3.83;;;16.40;57.60;;;;;;5056546;28;20047;-68
2021/04/11 09:39:51;;;;;;;10.00;3.25;;;16.40;57.50;;;;;;5056587;28;20025;-69
2021/04/11 09:42:35;;;;;;;10.02;3.13;;;16.50;57.10;;;;;;5056477;28;20031;-73
2021/04/11 09:45:22;;;;;;;10.32;3.20;;;16.50;56.20;;;;;;5056564;28;20100;-71
2021/04/11 09:48:19;;;;;;;12.00;3.22;;;16.50;56.10;;;;;;5056399;28;20044;-69
2021/04/11 09:51:00;;;;;;;8.70;2.97;;;16.50;56.70;;;;;;5056354;28;20155;-72
2021/04/11 09:53:56;;;;;;;11.98;2.95;;;16.60;56.60;;;;;;5056394;28;20105;-70
2021/04/11 09:56:54;;;;;;;11.65;3.35;;;16.60;56.60;;;;;;5056306;28;20037;-69
2021/04/11 09:59:40;;;;;;;11.82;3.53;;;16.60;56.70;;;;;;5056243;28;20083;-70
2021/04/11 10:02:14;;;;;;;11.48;3.45;;;16.70;56.60;;;;;;5056106;28;20073;-70
2021/04/11 10:05:16;;;;;;;8.88;3.38;;;16.70;56.60;;;;;;5054796;28;20165;-71
2021/04/11 10:08:05;;;;;;;13.40;3.78;;;16.70;56.70;;;;;;5045606;28;20033;-70
2021/04/11 10:10:39;;;;;;;10.27;3.35;;;16.70;56.20;;;;;;5055851;28;20037;-68
2021/04/11 10:13:17;;;;;;;12.07;3.70;;;16.70;56.10;;;;;;5056038;28;20107;-69
2021/04/11 10:16:18;;;;;;;8.88;3.00;;;16.80;56.50;;;;;;5054594;28;20056;-70
2021/04/11 10:18:55;;;;;;;12.25;3.63;;;16.80;56.50;;;;;;5052684;28;20494;-71
2021/04/11 10:21:58;;;;;;;9.52;3.38;;;16.90;56.40;;;;;;5055428;28;20021;-72
2021/04/11 10:24:37;;;;;;;10.40;3.90;;;17.00;56.40;;;;;;5055711;28;20098;-70
2021/04/11 10:27:24;;;;;;;10.90;3.88;;;17.00;56.10;;;;;;5055824;28;20024;-73
2021/04/11 10:29:51;;;;;;;8.93;3.80;;;17.10;56.10;;;;;;5055885;28;20060;-73
2021/04/11 10:32:31;;;;;;;13.27;3.85;;;17.10;55.70;;;;;;5055895;28;20017;-74
2021/04/11 10:35:19;;;;;;;10.65;3.42;;;17.10;55.70;;;;;;5055933;28;20105;-73
2021/04/11 10:37:55;;;;;;;10.27;3.70;;;17.10;56.10;;;;;;5055450;28;20374;-72
2021/04/11 10:40:39;;;;;;;12.38;3.85;;;17.10;56.30;;;;;;5055661;28;20040;-74
2021/04/11 10:43:10;;;;;;;;;;;17.10;56.50;;;;;;5056163;28;20087;-73
2021/04/11 10:45:48;;;;;;;12.95;4.40;;;17.10;56.90;;;;;;5055598;28;19954;-72
2021/04/11 10:48:33;;;;;;;13.27;4.30;;;17.10;56.10;;;;;;5055468;28;20033;-74
2021/04/11 10:51:26;;;;;;;12.43;3.72;;;17.00;56.30;;;;;;5055282;28;20311;-73
2021/04/11 10:54:33;;;;;;;12.63;3.58;;;17.00;56.70;;;;;;5055189;28;20029;-73
2021/04/11 10:57:32;;;;;;;13.90;4.30;;;17.00;56.70;;;;;;5055600;28;20029;-68
2021/04/11 11:00:35;;;;;;;12.10;3.78;;;17.00;56.70;;;;;;5055200;28;20029;-73
2021/04/11 11:03:38;;;;;;;10.55;4.00;;;17.00;56.80;;;;;;5055432;28;20485;-74
2021/04/11 11:06:22;;;;;;;8.20;3.45;;;17.10;56.80;;;;;;5055030;28;20048;-71
2021/04/11 11:09:12;;;;;;;10.55;3.88;;;17.10;56.40;;;;;;5055153;28;20029;-71
2021/04/11 11:12:00;;;;;;;9.00;3.63;;;17.10;57.60;;;;;;5055069;28;20029;-72
2021/04/11 11:14:50;;;;;;;12.85;4.03;;;17.10;56.70;;;;;;5055059;28;20029;-71
2021/04/11 11:17:18;;;;;;;12.88;4.22;;;17.00;57.20;;;;;;5054786;28;20033;-73
2021/04/11 11:20:01;;;;;;;14.00;4.50;;;17.00;57.20;;;;;;5054958;28;20462;-68
2021/04/11 11:22:39;;;;;;;14.63;3.83;;;17.00;57.70;;;;;;5053749;28;20535;-70
2021/04/11 11:25:32;;;;;;;15.30;3.95;;;17.00;58.20;;;;;;5054714;28;20509;-73
2021/04/11 11:28:19;;;;;;;16.95;4.07;;;17.00;58.00;;;;;;5055071;28;20470;-73
2021/04/11 11:30:51;;;;;;;15.68;3.85;;;16.90;58.20;;;;;;5054502;28;20037;-70
2021/04/11 11:33:53;;;;;;;10.68;3.70;;;16.90;58.30;;;;;;5054773;28;20021;-74
2021/04/11 11:36:22;;;;;;;16.90;4.38;;;17.00;58.30;;;;;;5054792;28;20025;-74
2021/04/11 11:39:03;;;;;;;12.25;3.78;;;17.00;57.80;;;;;;5054242;28;20127;-73
2021/04/11 11:41:34;;;;;;;13.23;3.92;;;17.00;57.70;;;;;;5054228;28;20021;-70
2021/04/11 11:44:04;;;;;;;15.70;4.13;;;17.00;57.90;;;;;;5054276;28;20021;-70
2021/04/11 11:46:54;;;;;;;20.50;4.22;;;17.10;57.90;;;;;;5054080;28;20063;-73
2021/04/11 11:49:33;;;;;;;15.38;4.57;;;17.10;58.30;;;;;;5054190;28;20043;-71
2021/04/11 11:51:58;;;;;;;14.98;5.00;;;17.10;58.10;;;;;;5054255;28;20056;-73
2021/04/11 11:54:59;;;;;;;14.68;4.93;;;17.10;58.10;;;;;;5054082;28;20064;-72
2021/04/11 11:58:09;;;;;;;11.50;4.13;;;17.20;58.60;;;;;;5054283;28;20394;-73
2021/04/11 12:00:39;;;;;;;12.07;4.10;;;17.10;58.50;;;;;;4992164;28;20142;-71
2021/04/11 12:03:33;;;;;;;14.95;5.28;;;17.10;58.10;;;;;;4992314;28;20074;-70
2021/04/11 12:06:02;;;;;;;13.90;4.45;;;17.10;58.70;;;;;;5037453;28;20047;-73
2021/04/11 12:08:52;;;;;;;17.10;4.30;;;17.00;58.70;;;;;;5053597;28;20100;-71
2021/04/11 12:11:33;;;;;;;13.25;4.00;;;17.00;58.90;;;;;;5053422;28;20031;-69
2021/04/11 12:14:16;;;;;;;12.63;4.32;;;17.00;58.80;;;;;;5051856;28;20493;-75
2021/04/11 12:16:47;;;;;;;17.58;4.70;;;17.00;59.10;;;;;;5053747;28;20021;-70
2021/04/11 12:19:29;;;;;;;16.58;4.53;;;16.90;59.00;;;;;;5053658;28;20040;-73
2021/04/11 12:22:08;;;;;;;15.02;4.80;;;16.90;59.10;;;;;;5053360;28;20045;-74
2021/04/11 12:24:48;;;;;;;13.32;4.20;;;16.80;59.20;;;;;;5053543;28;20028;-74
2021/04/11 12:27:23;;;;;;;12.80;4.18;;;16.80;59.50;;;;;;5053636;28;20091;-74
2021/04/11 12:29:50;;;;;;;16.85;4.65;;;16.80;59.90;;;;;;5053034;28;20083;-71
2021/04/11 12:32:24;;;;;;;13.13;4.93;;;16.80;59.70;;;;;;5052989;28;20032;-74
2021/04/11 12:35:11;;;;;;;17.75;5.10;;;16.80;60.00;;;;;;5053122;28;20025;-71
2021/04/11 12:37:57;;;;;;;14.40;4.80;;;16.80;60.00;;;;;;5053241;28;20021;-73
2021/04/11 12:40:38;;;;;;;18.35;4.80;;;16.80;59.50;;;;;;5053210;28;20021;-74
2021/04/11 12:43:13;;;;;;;17.15;4.90;;;16.70;59.60;;;;;;5053298;28;20029;-73
2021/04/11 12:45:58;;;;;;;16.48;5.13;;;16.70;59.80;;;;;;5053156;28;20024;-75
2021/04/11 12:48:36;;;;;;;15.32;4.63;;;16.70;60.20;;;;;;5052911;28;20142;-74
2021/04/11 12:51:17;;;;;;;15.82;4.68;;;16.70;59.90;;;;;;5053275;28;20351;-74
2021/04/11 12:54:01;;;;;;;12.20;4.97;;;16.70;60.60;;;;;;5053096;28;20020;-74
2021/04/11 12:56:29;;;;;;;16.63;5.30;;;16.70;60.10;;;;;;5052908;28;20056;-73
2021/04/11 12:59:04;;;;;;;12.18;4.55;;;16.70;60.20;;;;;;5053001;28;20067;-73
2021/04/11 13:01:34;;;;;;;21.23;4.68;;;16.70;60.20;;;;;;5052980;28;20537;-73
2021/04/11 13:04:03;;;;;;;14.77;5.15;;;16.70;60.00;;;;;;5052950;28;20108;-74
2021/04/11 13:06:50;;;;;;;19.27;5.10;;;16.70;59.70;;;;;;5052969;28;20063;-71
2021/04/11 13:09:37;;;;;;;15.15;5.13;;;16.70;60.30;;;;;;5053294;28;20067;-74
2021/04/11 13:12:06;;;;;;;18.85;5.00;;;16.80;60.30;;;;;;5053440;28;20104;-74
2021/04/11 13:14:37;;;;;;;17.55;4.55;;;16.80;60.00;;;;;;5053189;28;20025;-73
2021/04/11 13:17:06;;;;;;;18.17;4.90;;;16.80;59.80;;;;;;5053405;28;20029;-69
2021/04/11 13:19:41;;;;;;;13.25;4.65;;;16.80;60.00;;;;;;5053300;28;20029;-73
2021/04/11 13:22:19;;;;;;;12.98;4.38;;;16.90;60.80;;;;;;5053219;28;20053;-72
2021/04/11 13:25:06;;;;;;;12.48;4.55;;;16.90;60.10;;;;;;5056346;28;20028;-74
2021/04/11 13:27:38;;;;;;;17.02;4.63;;;16.90;60.30;;;;;;5056102;28;20025;-74
2021/04/11 13:30:03;;;;;;;16.63;4.78;;;16.90;60.00;;;;;;5053173;28;20108;-73
2021/04/11 13:32:48;;;;;;;18.25;5.63;;;16.90;60.20;;;;;;5053125;28;20019;-73
2021/04/11 13:35:35;;;;;;;13.77;4.78;;;16.90;60.40;;;;;;5052792;28;20021;-74
2021/04/11 13:38:05;;;;;;;12.70;4.70;;;16.90;60.80;;;;;;5053067;28;20494;-72
2021/04/11 13:40:35;;;;;;;21.52;5.45;;;16.90;60.30;;;;;;5051602;28;20489;-77
2021/04/11 13:43:03;;;;;;;24.05;5.07;;;16.80;60.10;;;;;;5052884;28;20092;-71